Time;durP1;ratioP1;P1;durP2;ratioP2;P2;SDS_P1;SDS_P2;PMS_P1;PMS_P2;Temp;Humidity;BMP_temperature;BMP_pressure;BME280_temperature;BME280_humidity;BME280_pressure;Samples;Min_cycle;Max_cycle;Signal;HPM_P1;HPM_P2
2022/07/28 00:00:14;;;;;;;2.50;0.93;;;;;;;15.68;66.53;102076.00;5054045;28;20228;-75
2022/07/28 00:02:39;;;;;;;1.48;0.80;;;;;;;15.65;66.96;102075.28;5047871;28;20402;-75
2022/07/28 00:05:05;;;;;;;2.15;0.70;;;;;;;15.65;67.06;102076.13;5059149;28;20048;-75
2022/07/28 00:07:30;;;;;;;4.93;0.80;;;;;;;15.65;66.70;102077.91;5045016;28;20056;-75
2022/07/28 00:09:55;;;;;;;5.72;0.90;;;;;;;15.63;67.00;102072.69;5057955;28;20048;-75
2022/07/28 00:12:21;;;;;;;1.15;0.70;;;;;;;15.63;67.08;102079.78;5058087;28;20288;-75
2022/07/28 00:14:46;;;;;;;1.35;0.98;;;;;;;15.63;67.09;102072.69;5044677;28;20252;-75
2022/07/28 00:17:12;;;;;;;1.13;0.90;;;;;;;15.62;66.78;102078.88;5031370;28;20108;-75
2022/07/28 00:19:37;;;;;;;2.47;0.98;;;;;;;15.59;66.82;102075.53;5059320;28;20040;-75
2022/07/28 00:22:05;;;;;;;0.90;0.80;;;;;;;15.59;66.98;102065.84;5049690;28;20049;-75
2022/07/28 00:24:30;;;;;;;2.40;0.77;;;;;;;15.57;66.76;102066.81;5049936;28;20082;-75
2022/07/28 00:26:56;;;;;;;2.78;0.95;;;;;;;15.57;66.71;102064.16;5050608;28;20053;-75
2022/07/28 00:29:21;;;;;;;1.35;1.23;;;;;;;15.59;67.22;102072.88;5039557;28;20045;-75
2022/07/28 00:31:47;;;;;;;1.55;1.02;;;;;;;15.59;67.17;102072.88;5048112;28;20365;-75
2022/07/28 00:34:12;;;;;;;1.83;0.90;;;;;;;15.58;66.65;102068.53;5053796;28;20327;-75
2022/07/28 00:36:38;;;;;;;3.42;1.13;;;;;;;15.52;67.02;102069.66;5039167;28;20040;-75
2022/07/28 00:39:03;;;;;;;1.77;0.75;;;;;;;15.47;66.96;102064.56;5045394;28;20037;-75
2022/07/28 00:41:29;;;;;;;2.90;0.75;;;;;;;15.44;66.95;102058.53;5040720;28;20045;-75
2022/07/28 00:43:55;;;;;;;2.97;1.02;;;;;;;15.35;67.12;102057.13;5044120;28;20045;-75
2022/07/28 00:46:22;;;;;;;1.92;0.80;;;;;;;15.29;67.50;102058.25;5041763;28;20060;-75
2022/07/28 00:48:50;;;;;;;1.45;0.73;;;;;;;15.29;67.24;102052.13;5047917;28;20048;-75
2022/07/28 00:51:16;;;;;;;1.98;0.70;;;;;;;15.28;67.30;102061.84;5043165;28;20208;-75
2022/07/28 00:53:43;;;;;;;4.65;0.77;;;;;;;15.26;67.69;102057.53;5042158;28;20378;-75
2022/07/28 00:56:08;;;;;;;3.15;1.00;;;;;;;15.26;67.58;102062.81;5053241;28;20029;-75
2022/07/28 00:58:35;;;;;;;1.33;0.70;;;;;;;15.26;67.68;102058.41;5040824;28;20106;-75
2022/07/28 01:04:23;;;;;;;1.42;0.95;;;;;;;15.27;67.39;102065.38;5036786;28;20035;-73
2022/07/28 01:07:10;;;;;;;4.22;0.70;;;;;;;15.27;67.66;102068.03;5042618;28;20029;-73
2022/07/28 01:09:51;;;;;;;1.48;0.80;;;;;;;15.26;67.58;102062.81;5045044;28;20025;-73
2022/07/28 01:12:48;;;;;;;0.93;0.70;;;;;;;15.24;67.54;102059.38;5040703;28;20052;-73
2022/07/28 01:15:19;;;;;;;0.93;0.90;;;;;;;15.19;67.54;102056.94;5053955;28;20025;-72
2022/07/28 01:18:01;;;;;;;1.08;0.80;;;;;;;15.16;67.55;102049.97;5062003;28;20037;-73
2022/07/28 01:20:42;;;;;;;1.65;0.82;;;;;;;15.17;67.86;102056.09;5047902;28;20045;-73
2022/07/28 01:23:11;;;;;;;3.45;1.05;;;;;;;15.11;67.92;102049.31;5058143;28;20319;-73
2022/07/28 01:25:46;;;;;;;1.70;0.90;;;;;;;15.11;67.86;102049.31;5048455;28;20083;-73
2022/07/28 01:28:31;;;;;;;1.73;0.95;;;;;;;15.08;67.80;102046.81;5051595;28;20028;-73
2022/07/28 01:31:02;;;;;;;1.23;0.70;;;;;;;15.04;67.91;102039.91;5046265;28;20025;-73
2022/07/28 01:33:36;;;;;;;4.68;0.82;;;;;;;15.01;68.16;102045.34;5041139;28;20048;-73
2022/07/28 01:36:08;;;;;;;2.83;1.10;;;;;;;15.00;68.08;102033.06;5056954;28;20074;-73
2022/07/28 01:38:35;;;;;;;2.38;1.00;;;;;;;15.02;68.01;102039.13;5041032;28;20040;-73
2022/07/28 01:41:02;;;;;;;2.17;0.70;;;;;;;15.03;67.88;102032.94;5044306;28;20044;-73
2022/07/28 01:43:32;;;;;;;1.13;0.80;;;;;;;14.96;67.68;102034.97;5045872;28;20403;-73
2022/07/28 01:46:00;;;;;;;1.00;0.80;;;;;;;14.92;68.14;102024.59;5054531;28;20104;-72
2022/07/28 01:48:28;;;;;;;4.43;1.13;;;;;;;14.92;67.98;102030.72;5042475;28;20025;-72
2022/07/28 01:50:55;;;;;;;0.83;0.60;;;;;;;14.90;67.82;102021.19;5053869;28;20087;-73
2022/07/28 01:53:21;;;;;;;3.00;0.90;;;;;;;14.88;67.93;102021.22;5044012;28;20332;-73
2022/07/28 01:55:49;;;;;;;0.77;0.70;;;;;;;14.83;68.19;102017.91;5040809;28;20060;-73
2022/07/28 01:58:19;;;;;;;0.95;0.80;;;;;;;14.88;68.20;102023.00;5041033;28;20033;-72
2022/07/28 02:00:48;;;;;;;1.60;0.90;;;;;;;14.87;68.32;102022.13;5050544;28;20284;-72
2022/07/28 02:03:15;;;;;;;2.13;0.80;;;;;;;14.80;68.23;102018.03;5054302;28;20121;-73
2022/07/28 02:05:42;;;;;;;0.70;0.70;;;;;;;14.81;68.31;102014.47;5052289;28;20037;-73
2022/07/28 02:08:10;;;;;;;2.10;1.00;;;;;;;14.80;68.18;102018.03;5053939;28;20036;-72
2022/07/28 02:10:36;;;;;;;1.80;0.85;;;;;;;14.77;68.54;102012.88;5052833;28;20074;-72
2022/07/28 02:13:03;;;;;;;4.15;1.10;;;;;;;14.76;68.85;102011.16;5039886;28;20057;-72
2022/07/28 02:15:30;;;;;;;2.90;0.88;;;;;;;14.73;68.90;102006.84;5046794;28;20044;-72
2022/07/28 02:17:56;;;;;;;4.53;1.13;;;;;;;14.75;68.74;102005.03;5056705;28;20201;-73
2022/07/28 02:20:22;;;;;;;2.10;0.90;;;;;;;14.75;68.85;102001.53;5050273;28;20026;-73
2022/07/28 02:22:48;;;;;;;1.73;0.95;;;;;;;14.77;68.93;102005.84;5045985;28;20112;-73
2022/07/28 02:25:14;;;;;;;1.13;0.80;;;;;;;14.77;68.85;102005.84;5047066;28;20049;-73
2022/07/28 02:27:46;;;;;;;1.13;1.02;;;;;;;14.80;68.90;102015.41;5052026;28;20033;-73
2022/07/28 02:30:16;;;;;;;1.60;0.82;;;;;;;14.83;69.04;102017.06;5037193;28;20036;-73
2022/07/28 02:32:55;;;;;;;2.22;0.85;;;;;;;14.85;68.71;102015.22;5049930;28;20028;-73
2022/07/28 02:35:38;;;;;;;1.52;0.70;;;;;;;14.87;68.75;102008.09;5036185;28;20500;-73
2022/07/28 02:38:10;;;;;;;1.70;0.80;;;;;;;14.88;68.89;102002.78;5055555;28;20096;-73
2022/07/28 02:40:39;;;;;;;1.60;0.88;;;;;;;14.91;68.81;102004.41;5051802;28;20037;-73
2022/07/28 02:43:09;;;;;;;2.85;0.88;;;;;;;14.93;68.66;102007.84;5038271;28;20025;-73
2022/07/28 02:45:38;;;;;;;1.60;0.68;;;;;;;14.95;68.55;102003.38;5053343;28;20025;-73
2022/07/28 02:48:07;;;;;;;1.33;0.80;;;;;;;14.92;68.53;102000.88;5041669;28;20036;-73
2022/07/28 02:50:32;;;;;;;0.98;0.88;;;;;;;14.91;68.59;101999.13;5046104;28;20209;-73
2022/07/28 02:53:03;;;;;;;4.13;1.00;;;;;;;14.88;68.43;102005.41;5046342;28;20027;-73
2022/07/28 02:55:30;;;;;;;1.35;0.70;;;;;;;14.87;68.83;101997.56;5040564;28;20033;-75
2022/07/28 02:57:57;;;;;;;1.67;0.88;;;;;;;14.84;68.64;102008.22;5053698;28;20372;-76
2022/07/28 03:00:24;;;;;;;4.00;0.80;;;;;;;14.80;68.21;102004.84;5039733;28;20087;-75
2022/07/28 03:02:51;;;;;;;1.50;0.80;;;;;;;14.73;68.64;102001.59;5040131;28;20021;-76
2022/07/28 03:05:16;;;;;;;2.38;0.90;;;;;;;14.68;68.67;102000.06;5012505;28;20037;-76
2022/07/28 03:07:42;;;;;;;1.50;0.82;;;;;;;14.68;68.88;102000.94;5041977;28;20355;-76
2022/07/28 03:10:15;;;;;;;3.17;0.90;;;;;;;14.65;68.55;102003.69;5038797;28;20041;-76
2022/07/28 03:12:41;;;;;;;1.40;0.82;;;;;;;14.67;68.93;102007.09;5046565;28;20037;-75
2022/07/28 03:15:07;;;;;;;1.05;0.88;;;;;;;14.71;68.80;102007.84;5024586;28;20064;-76
2022/07/28 03:17:32;;;;;;;0.90;0.70;;;;;;;14.72;68.47;102004.31;5045404;28;20041;-76
2022/07/28 03:19:58;;;;;;;1.45;0.90;;;;;;;14.74;68.82;102007.75;5038578;28;20037;-76
2022/07/28 03:22:23;;;;;;;1.20;0.70;;;;;;;14.77;68.57;102007.59;5042373;28;20096;-75
2022/07/28 03:24:52;;;;;;;3.35;0.80;;;;;;;14.79;68.41;102003.16;5038477;28;20092;-75
2022/07/28 03:27:32;;;;;;;0.80;0.80;;;;;;;14.80;68.74;102002.22;5039439;28;20087;-76
2022/07/28 03:30:12;;;;;;;4.60;0.90;;;;;;;14.81;68.51;102005.69;5041388;28;20017;-75
2022/07/28 03:32:41;;;;;;;2.85;0.90;;;;;;;14.76;68.49;101998.84;5039044;28;20220;-76
2022/07/28 03:35:08;;;;;;;2.13;0.85;;;;;;;14.74;68.71;102003.31;5038345;28;20229;-75
2022/07/28 03:37:49;;;;;;;1.90;0.80;;;;;;;14.73;68.75;102012.13;5051485;28;20485;-75
2022/07/28 03:40:15;;;;;;;1.55;0.90;;;;;;;14.70;68.43;102007.00;5057454;28;20086;-75
2022/07/28 03:42:46;;;;;;;0.98;0.85;;;;;;;14.68;68.53;102008.84;5053651;28;20255;-75
2022/07/28 03:45:14;;;;;;;1.95;1.10;;;;;;;14.68;68.52;102011.47;5058075;28;20154;-75
2022/07/28 03:47:48;;;;;;;2.47;1.10;;;;;;;14.59;68.76;102007.41;5045161;28;20392;-75
2022/07/28 03:50:13;;;;;;;1.67;0.93;;;;;;;14.56;68.98;102017.19;5050367;28;20067;-75
2022/07/28 03:52:38;;;;;;;1.38;0.90;;;;;;;14.57;69.17;102014.53;5044676;28;20241;-76
2022/07/28 03:55:05;;;;;;;1.65;0.90;;;;;;;14.59;69.20;102020.59;5051895;28;20040;-75
2022/07/28 03:57:31;;;;;;;2.97;0.90;;;;;;;14.61;68.79;102010.00;5036488;28;20042;-75
2022/07/28 03:59:56;;;;;;;1.70;0.93;;;;;;;14.63;68.88;102015.22;5015052;28;20255;-75
2022/07/28 04:02:21;;;;;;;0.88;0.68;;;;;;;14.63;68.84;102017.84;5039683;28;20240;-75
2022/07/28 04:04:47;;;;;;;2.72;0.82;;;;;;;14.63;68.80;102023.97;5035851;28;20260;-75
2022/07/28 04:07:12;;;;;;;2.15;1.10;;;;;;;14.62;69.00;102027.50;5042691;28;20035;-75
2022/07/28 04:09:37;;;;;;;1.35;1.10;;;;;;;14.56;69.07;102023.31;5046045;28;20048;-75
2022/07/28 04:12:03;;;;;;;1.13;0.90;;;;;;;14.55;68.94;102024.25;5046915;28;20340;-75
2022/07/28 04:14:29;;;;;;;2.15;1.00;;;;;;;14.56;68.86;102030.38;5052078;28;20109;-75
2022/07/28 04:16:54;;;;;;;1.35;0.98;;;;;;;14.56;68.71;102025.09;5046457;28;20091;-75
2022/07/28 04:19:19;;;;;;;3.13;1.10;;;;;;;14.55;68.91;102031.28;5042506;28;20040;-76
2022/07/28 04:21:45;;;;;;;2.25;0.90;;;;;;;14.53;68.77;102031.31;5047923;28;20055;-75
2022/07/28 04:24:10;;;;;;;1.42;0.77;;;;;;;14.54;69.12;102026.94;5055739;28;20064;-75
2022/07/28 04:26:36;;;;;;;3.28;1.20;;;;;;;14.52;68.69;102023.50;5045232;28;20214;-76
2022/07/28 04:29:02;;;;;;;0.95;0.73;;;;;;;14.52;69.00;102031.41;5039214;28;20044;-75
2022/07/28 04:31:27;;;;;;;0.95;0.95;;;;;;;14.52;69.21;102029.63;5054885;28;20492;-75
2022/07/28 04:33:53;;;;;;;2.05;0.85;;;;;;;14.53;68.87;102028.69;5042300;28;20348;-75
2022/07/28 04:36:19;;;;;;;1.15;1.00;;;;;;;14.51;68.76;102021.78;5043081;28;20041;-76
2022/07/28 04:38:44;;;;;;;1.58;1.17;;;;;;;14.48;69.28;102030.66;5033146;28;20037;-75
2022/07/28 04:41:11;;;;;;;1.88;1.08;;;;;;;14.47;69.00;102023.66;5017224;28;20037;-75
2022/07/28 04:43:37;;;;;;;1.90;0.90;;;;;;;14.48;69.25;102028.03;5040368;28;20375;-76
2022/07/28 04:46:03;;;;;;;1.02;0.90;;;;;;;14.49;69.15;102023.63;5040075;28;20413;-75
2022/07/28 04:48:28;;;;;;;2.33;0.90;;;;;;;14.46;69.19;102019.34;5037691;28;20120;-75
2022/07/28 04:50:54;;;;;;;3.92;1.27;;;;;;;14.44;69.41;102025.56;5038348;28;20052;-76
2022/07/28 04:53:20;;;;;;;0.88;0.82;;;;;;;14.40;69.75;102016.91;5041197;28;20059;-75
2022/07/28 04:55:46;;;;;;;1.83;1.20;;;;;;;14.34;69.91;102017.16;5040191;28;20044;-76
2022/07/28 04:58:11;;;;;;;4.75;1.85;;;;;;;14.30;69.60;102019.03;5044490;28;20040;-76
2022/07/28 05:00:37;;;;;;;3.45;1.35;;;;;;;14.28;69.97;102025.28;5038022;28;20068;-75
2022/07/28 05:03:03;;;;;;;1.80;1.20;;;;;;;14.25;69.93;102025.41;5034948;28;20100;-75
2022/07/28 05:05:28;;;;;;;2.10;1.35;;;;;;;14.19;70.30;102027.34;5022935;28;20033;-75
2022/07/28 05:07:54;;;;;;;1.90;1.20;;;;;;;14.18;70.12;102020.34;5035494;28;20338;-75
2022/07/28 05:10:19;;;;;;;1.65;1.20;;;;;;;14.15;70.26;102020.47;5035187;28;20068;-75
2022/07/28 05:12:46;;;;;;;2.17;1.30;;;;;;;14.15;70.65;102014.31;5035485;28;20029;-75
2022/07/28 05:15:12;;;;;;;2.40;1.30;;;;;;;14.08;70.64;102020.72;5033967;28;20037;-75
2022/07/28 05:17:37;;;;;;;4.18;1.17;;;;;;;14.09;70.41;102017.19;5035077;28;20079;-75
2022/07/28 05:20:04;;;;;;;3.72;1.50;;;;;;;14.10;70.89;102018.91;5035963;28;20044;-75
2022/07/28 05:22:56;;;;;;;2.83;1.30;;;;;;;14.08;70.77;102018.97;5036304;28;20049;-75
2022/07/28 05:25:23;;;;;;;3.85;1.20;;;;;;;14.07;70.72;102027.78;5035333;28;20392;-75
2022/07/28 05:27:49;;;;;;;4.40;1.33;;;;;;;14.06;70.95;102027.84;5034614;28;20021;-76
2022/07/28 05:30:15;;;;;;;1.55;1.30;;;;;;;14.08;71.02;102024.25;5034966;28;20106;-75
2022/07/28 05:32:41;;;;;;;4.45;1.38;;;;;;;14.06;70.84;102025.22;5033796;28;20040;-76
2022/07/28 05:35:07;;;;;;;2.53;1.55;;;;;;;14.05;71.16;102012.97;5043129;28;20024;-76
2022/07/28 05:37:34;;;;;;;5.43;1.20;;;;;;;14.02;71.28;102019.19;5040161;28;20033;-75
2022/07/28 05:40:00;;;;;;;3.17;1.02;;;;;;;14.03;71.43;102020.91;5049817;28;20069;-75
2022/07/28 05:42:27;;;;;;;2.13;1.33;;;;;;;13.95;71.58;102021.22;5038923;28;20040;-75
2022/07/28 05:44:52;;;;;;;2.70;1.40;;;;;;;13.97;71.38;102019.38;5052264;28;20064;-75
2022/07/28 05:47:18;;;;;;;1.08;0.90;;;;;;;14.00;71.61;102021.03;5039068;28;20033;-75
2022/07/28 05:49:43;;;;;;;3.15;1.30;;;;;;;14.02;71.67;102024.47;5053893;28;20063;-75
2022/07/28 05:52:09;;;;;;;3.38;1.88;;;;;;;14.04;71.49;102024.41;5039770;28;20026;-75
2022/07/28 05:54:34;;;;;;;4.25;1.20;;;;;;;14.01;71.30;102028.03;5033675;28;20115;-76
2022/07/28 05:56:59;;;;;;;6.95;1.52;;;;;;;14.00;71.25;102026.28;5038791;28;20029;-76
2022/07/28 05:59:25;;;;;;;3.55;1.33;;;;;;;14.04;70.94;102021.78;5036062;28;20217;-76
2022/07/28 06:01:50;;;;;;;2.97;1.63;;;;;;;14.05;70.54;102024.34;5035218;28;20045;-75
2022/07/28 06:04:15;;;;;;;5.80;1.55;;;;;;;14.05;71.09;102020.88;5033857;28;20132;-75
2022/07/28 06:06:41;;;;;;;2.95;1.15;;;;;;;14.05;71.05;102026.13;5033858;28;20236;-75
2022/07/28 06:09:06;;;;;;;5.10;1.35;;;;;;;14.01;71.14;102022.75;5034861;28;20249;-75
2022/07/28 06:11:31;;;;;;;3.42;1.20;;;;;;;14.02;70.93;102027.97;5034114;28;20275;-75
2022/07/28 06:13:57;;;;;;;4.15;1.10;;;;;;;14.04;71.24;102027.03;5036609;28;20036;-75
2022/07/28 06:16:22;;;;;;;7.78;1.48;;;;;;;14.01;70.92;102023.59;5031736;28;20075;-75
2022/07/28 06:18:49;;;;;;;4.13;1.50;;;;;;;13.96;71.35;102024.69;5034638;28;20374;-75
2022/07/28 06:21:14;;;;;;;5.70;1.40;;;;;;;14.00;71.63;102018.38;5033808;28;20082;-75
2022/07/28 06:23:39;;;;;;;3.72;1.27;;;;;;;14.04;71.97;102021.78;5034365;28;20381;-75
2022/07/28 06:26:05;;;;;;;3.25;1.42;;;;;;;14.01;71.86;102022.75;5034496;28;20029;-75
2022/07/28 06:28:31;;;;;;;5.72;1.45;;;;;;;14.01;71.92;102026.25;5040468;28;20033;-75
2022/07/28 06:30:57;;;;;;;7.28;1.80;;;;;;;14.04;72.07;102022.63;5039350;28;20044;-75
2022/07/28 06:33:22;;;;;;;4.95;1.38;;;;;;;14.06;72.26;102027.84;5035456;28;20478;-75
2022/07/28 06:35:48;;;;;;;5.68;1.70;;;;;;;14.05;71.72;102027.00;5040776;28;20140;-75
2022/07/28 06:38:13;;;;;;;4.95;1.45;;;;;;;14.08;72.09;102020.72;5034664;28;20095;-75
2022/07/28 06:40:39;;;;;;;1.50;1.17;;;;;;;14.09;71.80;102020.69;5036483;28;20414;-75
2022/07/28 06:43:04;;;;;;;3.40;1.55;;;;;;;14.13;72.21;102021.44;5039915;28;20038;-76
2022/07/28 06:45:30;;;;;;;2.58;1.20;;;;;;;14.12;71.77;102020.59;5034399;28;20209;-75
2022/07/28 06:47:55;;;;;;;7.30;1.38;;;;;;;14.15;71.70;102014.31;5036936;28;20026;-75
2022/07/28 06:50:21;;;;;;;5.53;1.30;;;;;;;14.17;71.95;102018.63;5034454;28;20228;-75
2022/07/28 06:52:46;;;;;;;4.75;1.25;;;;;;;14.22;72.15;102018.44;5037323;28;20320;-75
2022/07/28 06:55:14;;;;;;;2.63;1.63;;;;;;;14.26;72.10;102022.72;5035719;28;20033;-75
2022/07/28 06:57:41;;;;;;;1.30;1.20;;;;;;;14.30;71.51;102026.09;5037716;28;20064;-75
2022/07/28 07:00:07;;;;;;;3.00;1.20;;;;;;;14.34;72.02;102020.63;5037679;28;20245;-75
2022/07/28 07:02:38;;;;;;;4.15;1.20;;;;;;;14.40;71.68;102016.91;5039017;28;20314;-75
2022/07/28 07:05:04;;;;;;;4.38;1.30;;;;;;;14.44;71.41;102015.00;5035072;28;20056;-75
2022/07/28 07:07:30;;;;;;;5.32;1.50;;;;;;;14.52;71.18;102015.59;5039543;28;20605;-75
2022/07/28 07:09:55;;;;;;;7.18;1.30;;;;;;;14.56;70.96;102018.03;5035268;28;20064;-75
2022/07/28 07:12:21;;;;;;;3.90;1.70;;;;;;;14.62;70.31;102016.13;5036211;28;20029;-75
2022/07/28 07:14:46;;;;;;;3.63;1.23;;;;;;;14.64;69.71;102012.50;5036236;28;20045;-75
2022/07/28 07:17:12;;;;;;;5.50;1.42;;;;;;;14.67;69.91;102014.16;5039081;28;20399;-75
2022/07/28 07:19:37;;;;;;;3.33;1.08;;;;;;;14.71;69.97;102010.47;5036996;28;20351;-75
2022/07/28 07:22:03;;;;;;;4.15;1.00;;;;;;;14.75;69.67;102007.69;5037788;28;20038;-75
2022/07/28 07:24:28;;;;;;;7.93;1.42;;;;;;;14.83;69.49;102010.00;5036489;28;20045;-76
2022/07/28 07:26:53;;;;;;;8.98;1.20;;;;;;;14.87;69.04;102008.09;5036197;28;20059;-76
2022/07/28 07:29:21;;;;;;;1.65;0.70;;;;;;;14.92;67.36;102012.28;5040944;28;20079;-75
2022/07/28 07:31:46;;;;;;;5.75;1.02;;;;;;;14.98;67.38;102011.16;5036868;28;20057;-76
2022/07/28 07:34:11;;;;;;;3.70;0.88;;;;;;;15.03;66.52;102014.47;5035868;28;20052;-75
2022/07/28 07:36:37;;;;;;;4.90;1.25;;;;;;;15.06;65.80;102018.75;5036972;28;20061;-75
2022/07/28 07:39:02;;;;;;;2.35;0.85;;;;;;;15.08;64.81;102012.50;5034929;28;20075;-75
2022/07/28 07:41:28;;;;;;;2.08;0.80;;;;;;;15.15;65.10;102013.09;5036306;28;20045;-76
2022/07/28 07:43:53;;;;;;;1.55;0.93;;;;;;;15.20;64.80;102015.56;5045744;28;20221;-75
2022/07/28 07:46:18;;;;;;;2.20;0.60;;;;;;;15.24;65.08;102018.00;5029922;28;20037;-76
2022/07/28 07:48:44;;;;;;;3.17;1.38;;;;;;;15.31;65.24;102016.81;5040174;28;20146;-76
2022/07/28 07:51:09;;;;;;;4.25;1.10;;;;;;;15.36;65.82;102014.00;5047123;28;20021;-76
2022/07/28 07:53:34;;;;;;;2.53;0.80;;;;;;;15.44;64.73;102011.88;5038346;28;20053;-75
2022/07/28 07:56:00;;;;;;;4.13;0.90;;;;;;;15.48;64.13;102012.59;5038269;28;20065;-76
2022/07/28 07:58:26;;;;;;;3.67;0.82;;;;;;;15.54;63.09;102009.72;5037063;28;20037;-76
2022/07/28 08:00:52;;;;;;;4.13;1.63;;;;;;;15.60;62.42;102016.53;5035982;28;20057;-76
2022/07/28 08:03:18;;;;;;;2.42;1.40;;;;;;;15.64;61.67;102008.38;5037923;28;20274;-76
2022/07/28 08:05:43;;;;;;;4.25;1.00;;;;;;;15.69;61.83;102008.19;5037035;28;20033;-75
2022/07/28 08:08:09;;;;;;;1.45;0.70;;;;;;;15.72;61.95;102006.28;5035358;28;20101;-76
2022/07/28 08:10:36;;;;;;;2.05;0.85;;;;;;;15.77;61.95;102008.78;5035207;28;20117;-76
2022/07/28 08:13:02;;;;;;;10.80;5.57;;;;;;;15.82;60.97;102013.81;5037060;28;20048;-76
2022/07/28 08:15:28;;;;;;;9.52;4.68;;;;;;;15.83;61.10;102007.63;5037238;28;20037;-76
2022/07/28 08:17:53;;;;;;;6.32;2.35;;;;;;;15.87;61.69;102010.06;5021200;28;20087;-76
2022/07/28 08:20:18;;;;;;;4.05;1.30;;;;;;;15.90;61.56;101999.38;5035188;28;20048;-75
2022/07/28 08:22:52;;;;;;;1.83;1.00;;;;;;;15.96;61.72;102000.03;5036305;28;20188;-76
2022/07/28 08:25:18;;;;;;;3.80;1.08;;;;;;;16.00;61.71;102001.59;5036145;28;20264;-76
2022/07/28 08:27:43;;;;;;;1.02;0.93;;;;;;;16.05;60.13;101996.97;5037591;28;20152;-75
2022/07/28 08:30:11;;;;;;;1.83;0.90;;;;;;;16.06;60.71;101999.53;5033863;28;20454;-76
2022/07/28 08:32:36;;;;;;;2.38;0.85;;;;;;;16.10;60.02;101997.63;5036693;28;20025;-76
2022/07/28 08:35:03;;;;;;;2.30;0.95;;;;;;;16.15;60.12;102000.88;5035606;28;20032;-76
2022/07/28 08:37:29;;;;;;;2.75;1.00;;;;;;;16.20;59.84;101998.03;5037994;28;20429;-75
2022/07/28 08:39:54;;;;;;;1.52;0.70;;;;;;;16.21;58.99;101995.34;5036707;28;20112;-76
2022/07/28 08:42:28;;;;;;;2.45;0.90;;;;;;;16.28;59.41;102001.19;5017783;28;20218;-76
2022/07/28 08:45:00;;;;;;;1.63;0.80;;;;;;;16.34;59.03;102000.91;5033599;28;20141;-76
2022/07/28 08:47:29;;;;;;;2.42;0.80;;;;;;;16.41;58.76;101997.06;5035432;28;20047;-76
2022/07/28 08:49:58;;;;;;;3.15;0.90;;;;;;;16.46;59.18;102002.09;5039892;28;20029;-76
2022/07/28 08:52:27;;;;;;;2.15;1.08;;;;;;;16.49;58.51;101991.41;5035242;28;20230;-76
2022/07/28 08:54:55;;;;;;;1.45;0.85;;;;;;;16.54;58.96;101992.03;5039042;28;20014;-76
2022/07/28 08:57:29;;;;;;;4.03;1.20;;;;;;;16.56;58.78;101992.81;5034954;28;20233;-76
2022/07/28 08:59:55;;;;;;;2.80;1.10;;;;;;;16.55;57.44;101998.19;5039986;28;20035;-76
2022/07/28 09:02:25;;;;;;;5.03;0.88;;;;;;;16.54;57.81;101999.13;5036405;28;20045;-75
2022/07/28 09:04:52;;;;;;;2.15;0.82;;;;;;;16.52;57.02;102001.84;5037057;28;20320;-75
2022/07/28 09:07:18;;;;;;;0.65;0.55;;;;;;;16.54;57.59;102001.78;5035758;28;20337;-75
2022/07/28 09:09:47;;;;;;;2.00;0.85;;;;;;;16.55;57.85;102006.09;5036250;28;20030;-75
2022/07/28 09:12:12;;;;;;;1.73;0.73;;;;;;;16.54;57.43;102001.78;5033671;28;20045;-75
2022/07/28 09:14:38;;;;;;;2.15;0.82;;;;;;;16.55;58.30;102003.47;5036149;28;20071;-75
2022/07/28 09:17:03;;;;;;;2.92;0.60;;;;;;;16.57;57.48;101996.31;5035858;28;20041;-75
2022/07/28 09:19:28;;;;;;;3.17;0.80;;;;;;;16.56;57.38;101995.47;5035724;28;20048;-76
2022/07/28 09:21:58;;;;;;;1.25;0.70;;;;;;;16.58;58.08;101998.03;5036914;28;20060;-76
2022/07/28 09:24:41;;;;;;;5.78;0.82;;;;;;;16.60;57.28;101994.38;5043875;28;20033;-76
2022/07/28 09:27:12;;;;;;;0.60;0.60;;;;;;;16.62;57.82;101986.38;5036561;28;20429;-76
2022/07/28 09:29:41;;;;;;;2.15;0.70;;;;;;;16.64;58.09;101985.34;5038213;28;20320;-76
2022/07/28 09:32:07;;;;;;;1.52;0.90;;;;;;;16.67;58.58;101985.22;5038204;28;20025;-76
2022/07/28 09:34:58;;;;;;;2.67;0.98;;;;;;;16.70;57.71;101979.78;5038024;28;20380;-75
2022/07/28 09:37:26;;;;;;;2.40;0.98;;;;;;;16.77;56.45;101982.13;5032479;28;20284;-76
2022/07/28 09:39:53;;;;;;;2.53;0.90;;;;;;;16.79;56.32;101980.25;5037236;28;20078;-76
2022/07/28 09:42:19;;;;;;;1.98;0.77;;;;;;;16.81;56.47;101989.00;5035935;28;20041;-76
2022/07/28 09:45:01;;;;;;;1.90;0.65;;;;;;;16.85;56.29;101982.66;5032942;28;20240;-75
2022/07/28 09:47:29;;;;;;;1.77;0.90;;;;;;;16.93;57.37;101983.13;5031313;28;20343;-76
2022/07/28 09:49:54;;;;;;;3.75;1.50;;;;;;;17.03;56.05;101981.75;5036712;28;20040;-76
2022/07/28 09:52:35;;;;;;;2.25;0.80;;;;;;;17.10;55.97;101970.84;5034820;28;20033;-76
2022/07/28 09:55:03;;;;;;;5.20;1.00;;;;;;;17.17;56.63;101970.47;5034033;28;20060;-76
2022/07/28 09:57:30;;;;;;;1.88;1.00;;;;;;;17.18;55.91;101964.22;5031053;28;20037;-76
2022/07/28 09:59:56;;;;;;;2.53;0.90;;;;;;;17.23;55.86;101964.88;5032449;28;20036;-76
2022/07/28 10:02:26;;;;;;;2.10;1.02;;;;;;;17.25;56.08;101956.84;5034804;28;20240;-76
2022/07/28 10:04:52;;;;;;;5.75;4.40;;;;;;;17.31;56.05;101945.09;5039507;28;20037;-75
2022/07/28 10:07:18;;;;;;;11.50;3.28;;;;;;;17.31;55.78;101948.56;5043378;28;20330;-76
2022/07/28 10:09:56;;;;;;;2.53;1.55;;;;;;;17.32;56.42;101945.00;5037702;28;20065;-76
2022/07/28 10:12:23;;;;;;;4.72;1.00;;;;;;;17.31;55.32;101939.78;5031138;28;20056;-76
2022/07/28 10:14:51;;;;;;;1.05;1.00;;;;;;;17.30;55.71;101941.59;5039337;28;20108;-76
2022/07/28 10:17:28;;;;;;;1.77;0.70;;;;;;;17.32;55.08;101944.13;5045651;28;20056;-76
2022/07/28 10:19:57;;;;;;;1.20;0.60;;;;;;;17.37;54.36;101942.09;5037997;28;20033;-76
2022/07/28 10:22:25;;;;;;;1.73;0.80;;;;;;;17.40;54.86;101945.44;5043761;28;20277;-76
2022/07/28 10:24:52;;;;;;;1.73;0.80;;;;;;;17.43;54.62;101942.66;5039522;28;20029;-76
2022/07/28 10:27:20;;;;;;;0.98;0.63;;;;;;;17.46;53.45;101936.34;5042708;28;20067;-76
2022/07/28 10:29:49;;;;;;;3.15;0.70;;;;;;;17.46;53.33;101939.84;5039192;28;20041;-76
2022/07/28 10:32:14;;;;;;;2.17;0.60;;;;;;;17.51;52.44;101941.41;5041853;28;20025;-76
2022/07/28 10:34:48;;;;;;;1.00;0.50;;;;;;;17.55;51.78;101941.13;5041355;28;20051;-76
2022/07/28 10:37:20;;;;;;;0.60;0.47;;;;;;;17.57;51.63;101938.41;5043371;28;20064;-76
2022/07/28 10:39:54;;;;;;;0.57;0.50;;;;;;;17.60;51.90;101935.63;5044948;28;20362;-76
2022/07/28 10:42:20;;;;;;;5.10;0.75;;;;;;;17.61;51.18;101927.59;5040297;28;20048;-76
2022/07/28 10:44:45;;;;;;;2.95;0.40;;;;;;;17.63;51.37;101925.72;5037884;28;20041;-76
2022/07/28 10:47:12;;;;;;;1.88;0.60;;;;;;;17.67;52.25;101929.06;5045039;28;20056;-76
2022/07/28 10:49:38;;;;;;;3.13;2.50;;;;;;;17.75;51.25;101936.59;5037731;28;20305;-76
2022/07/28 10:52:05;;;;;;;7.97;2.25;;;;;;;17.77;50.34;101938.25;5038741;28;20278;-76
2022/07/28 10:54:35;;;;;;;4.70;2.20;;;;;;;17.80;50.86;101930.09;5043988;28;20041;-76
2022/07/28 10:57:04;;;;;;;6.95;3.90;;;;;;;17.84;51.67;101922.84;5046443;28;20068;-76
2022/07/28 10:59:51;;;;;;;4.95;2.80;;;;;;;17.88;51.54;101920.91;5043425;28;20378;-76
2022/07/28 11:02:49;;;;;;;7.03;4.47;;;;;;;17.94;51.20;101907.34;5044306;28;20061;-76
2022/07/28 11:05:29;;;;;;;2.40;1.40;;;;;;;18.02;50.39;101910.41;5032440;28;20103;-76
2022/07/28 11:07:56;;;;;;;2.00;1.35;;;;;;;18.08;50.17;101910.09;5038145;28;20289;-76
2022/07/28 11:10:23;;;;;;;5.05;1.10;;;;;;;18.15;49.79;101910.59;5035908;28;20047;-76
2022/07/28 11:12:58;;;;;;;1.80;1.02;;;;;;;18.14;50.01;101915.06;5053164;28;20286;-76
2022/07/28 11:15:34;;;;;;;0.88;0.70;;;;;;;18.18;49.83;101921.03;5042581;28;20092;-76
2022/07/28 11:18:08;;;;;;;1.05;0.73;;;;;;;18.20;49.79;101914.69;5043220;28;20198;-76
2022/07/28 11:20:51;;;;;;;3.78;0.90;;;;;;;18.29;49.82;101915.97;5030054;28;20055;-76
2022/07/28 11:23:35;;;;;;;2.08;0.80;;;;;;;18.32;50.80;101914.94;5034977;28;20107;-76
2022/07/28 11:26:22;;;;;;;0.90;0.90;;;;;;;18.42;50.14;101914.34;5036298;28;20033;-76
2022/07/28 11:29:11;;;;;;;4.60;0.77;;;;;;;18.46;50.58;101915.03;5036649;28;20021;-76
2022/07/28 11:31:45;;;;;;;4.40;2.97;;;;;;;18.49;50.74;101914.84;5028489;28;20041;-76